Time;durP1;ratioP1;P1;durP2;ratioP2;P2;SDS_P1;SDS_P2;PMS_P1;PMS_P2;Temp;Humidity;BMP_temperature;BMP_pressure;BME280_temperature;BME280_humidity;BME280_pressure;Samples;Min_cycle;Max_cycle;Signal;HPM_P1;HPM_P2
2021/05/22 04:00:56;;;;;;;1.20;1.10;;;9.40;99.90;;;;;;5771755;22;20551;-67
2021/05/22 04:03:23;;;;;;;4.67;2.17;;;9.40;99.90;;;;;;5015391;28;20440;-67
2021/05/22 04:05:49;;;;;;;3.73;1.00;;;9.40;99.90;;;;;;5014990;28;20464;-67
2021/05/22 04:08:15;;;;;;;0.90;0.90;;;9.50;99.90;;;;;;5015287;28;20456;-67
2021/05/22 04:10:42;;;;;;;2.00;1.07;;;9.50;99.90;;;;;;5015050;28;20481;-66
2021/05/22 04:13:08;;;;;;;3.97;1.47;;;9.60;99.90;;;;;;5015171;28;20457;-67
2021/05/22 04:15:34;;;;;;;1.67;0.80;;;9.60;99.90;;;;;;5015159;28;21010;-67
2021/05/22 04:18:01;;;;;;;1.17;1.07;;;9.70;99.90;;;;;;5015118;28;20448;-67
2021/05/22 04:20:28;;;;;;;1.57;1.17;;;9.70;99.90;;;;;;5015047;28;20456;-67
2021/05/22 04:22:54;;;;;;;0.97;0.90;;;9.80;99.90;;;;;;5015366;28;20531;-67
2021/05/22 04:25:20;;;;;;;3.03;1.17;;;9.70;99.90;;;;;;5015530;28;20528;-66
2021/05/22 04:27:47;;;;;;;1.90;0.90;;;9.80;99.90;;;;;;5015229;28;20526;-67
2021/05/22 04:30:14;;;;;;;1.10;0.90;;;9.80;99.90;;;;;;5015128;28;20537;-66
2021/05/22 04:32:41;;;;;;;1.20;1.10;;;9.80;99.90;;;;;;5015488;28;20468;-68
2021/05/22 04:35:08;;;;;;;1.37;0.90;;;9.90;99.90;;;;;;5014871;28;20467;-66
2021/05/22 04:37:35;;;;;;;3.13;1.30;;;10.00;99.90;;;;;;5015956;28;20762;-67
2021/05/22 04:40:01;;;;;;;1.67;0.80;;;10.00;99.90;;;;;;5015067;28;20507;-67
2021/05/22 04:42:27;;;;;;;1.80;1.20;;;10.10;99.90;;;;;;5015144;28;20472;-67
2021/05/22 04:44:54;;;;;;;1.67;1.10;;;10.00;99.90;;;;;;5015485;28;20453;-67
2021/05/22 04:47:20;;;;;;;1.97;1.07;;;9.80;99.90;;;;;;5015568;28;20456;-67
2021/05/22 04:49:46;;;;;;;1.80;1.00;;;9.80;99.90;;;;;;5014642;28;20842;-67
2021/05/22 04:52:13;;;;;;;1.07;1.00;;;9.80;99.90;;;;;;5015164;28;20476;-66
2021/05/22 04:54:39;;;;;;;2.10;0.87;;;9.80;99.90;;;;;;5014724;28;20974;-67
2021/05/22 04:57:06;;;;;;;1.20;0.90;;;9.80;99.90;;;;;;5016522;28;20460;-68
2021/05/22 04:59:33;;;;;;;1.63;1.07;;;9.80;99.90;;;;;;5025495;28;20460;-66
2021/05/22 05:01:59;;;;;;;2.67;1.30;;;9.80;99.90;;;;;;5015749;28;20853;-67
2021/05/22 05:04:25;;;;;;;1.20;0.90;;;9.80;99.90;;;;;;5014730;28;20457;-67
2021/05/22 05:06:51;;;;;;;3.43;0.97;;;9.90;99.90;;;;;;5014821;28;20487;-67
2021/05/22 05:09:19;;;;;;;1.33;1.03;;;9.90;99.90;;;;;;5014840;28;20476;-67
2021/05/22 05:11:45;;;;;;;1.47;1.27;;;10.00;99.90;;;;;;5014729;28;20472;-67
2021/05/22 05:14:11;;;;;;;1.83;1.03;;;10.00;99.90;;;;;;5015240;28;20510;-67
2021/05/22 05:16:37;;;;;;;2.40;1.00;;;10.10;99.90;;;;;;5014915;28;20448;-67
2021/05/22 05:19:04;;;;;;;2.10;0.80;;;10.20;99.90;;;;;;5014359;28;20947;-67
2021/05/22 05:21:30;;;;;;;0.77;0.77;;;10.30;99.90;;;;;;5019328;28;20481;-67
2021/05/22 05:23:56;;;;;;;1.87;0.93;;;10.40;99.90;;;;;;5018884;28;20460;-67
2021/05/22 05:26:23;;;;;;;0.93;0.90;;;10.60;99.90;;;;;;5014592;28;20507;-66
2021/05/22 05:28:49;;;;;;;2.93;0.87;;;10.70;99.90;;;;;;5015073;28;20452;-67
2021/05/22 05:31:15;;;;;;;2.87;1.23;;;10.80;99.90;;;;;;5022438;28;20473;-67
2021/05/22 05:33:42;;;;;;;2.10;1.20;;;10.90;99.90;;;;;;5014657;28;20461;-67
2021/05/22 05:36:08;;;;;;;1.30;1.20;;;11.00;99.90;;;;;;5014422;28;20456;-67
2021/05/22 05:38:34;;;;;;;1.13;0.77;;;11.00;99.90;;;;;;5014416;28;20575;-66
2021/05/22 05:41:00;;;;;;;2.20;0.90;;;11.10;99.90;;;;;;5016336;28;21014;-67
2021/05/22 05:43:27;;;;;;;1.97;0.90;;;11.20;99.90;;;;;;5018477;28;20459;-68
2021/05/22 05:45:53;;;;;;;2.43;1.30;;;11.30;99.90;;;;;;5018230;28;20815;-67
2021/05/22 05:48:20;;;;;;;1.17;1.00;;;11.40;99.90;;;;;;5018346;28;20453;-67
2021/05/22 05:50:46;;;;;;;1.77;1.23;;;11.50;99.90;;;;;;5018131;28;20531;-68
2021/05/22 05:53:12;;;;;;;1.10;0.80;;;11.60;99.90;;;;;;5018328;28;20555;-67
2021/05/22 05:55:39;;;;;;;2.83;1.63;;;11.70;99.90;;;;;;5017828;28;20456;-67
2021/05/22 05:58:05;;;;;;;2.30;1.23;;;11.90;99.90;;;;;;5018462;28;20461;-66
2021/05/22 06:00:32;;;;;;;2.17;0.90;;;11.90;99.90;;;;;;5017733;28;20481;-67
2021/05/22 06:02:58;;;;;;;2.17;1.07;;;12.10;99.90;;;;;;5018324;28;20915;-67
2021/05/22 06:05:24;;;;;;;3.23;1.10;;;12.10;99.90;;;;;;5017685;28;21009;-68
2021/05/22 06:07:51;;;;;;;4.40;1.47;;;12.30;99.90;;;;;;5017534;28;21033;-68
2021/05/22 06:10:17;;;;;;;1.30;0.93;;;12.40;99.90;;;;;;5017593;28;20541;-66
2021/05/22 06:12:44;;;;;;;2.53;1.30;;;12.50;99.90;;;;;;5017338;28;20511;-67
2021/05/22 06:15:22;;;;;;;3.07;1.27;;;12.70;99.90;;;;;;5017736;28;20551;-67
2021/05/22 06:17:51;;;;;;;2.80;1.10;;;12.70;99.90;;;;;;5017678;28;20797;-68
2021/05/22 06:20:18;;;;;;;2.30;1.83;;;12.90;99.90;;;;;;5017661;28;20456;-68
2021/05/22 06:22:44;;;;;;;1.63;1.00;;;13.00;99.90;;;;;;5017581;28;20457;-66
2021/05/22 06:25:12;;;;;;;3.90;1.50;;;13.00;99.90;;;;;;5017570;28;20452;-67
2021/05/22 06:27:38;;;;;;;5.90;1.40;;;13.10;99.90;;;;;;5017378;28;20520;-66
2021/05/22 06:30:05;;;;;;;4.70;1.47;;;13.40;99.90;;;;;;5023722;28;20481;-69
2021/05/22 06:32:32;;;;;;;3.27;1.33;;;13.60;99.90;;;;;;5020927;28;20487;-68
2021/05/22 06:34:59;;;;;;;2.83;1.00;;;13.70;99.90;;;;;;5017260;28;20492;-67
2021/05/22 06:37:25;;;;;;;3.60;1.10;;;13.70;99.90;;;;;;5017074;28;20457;-67
2021/05/22 06:39:52;;;;;;;3.93;1.27;;;13.50;99.90;;;;;;5016955;28;20861;-66
2021/05/22 06:42:18;;;;;;;3.03;1.00;;;13.60;99.90;;;;;;5016685;28;20503;-67
2021/05/22 06:44:50;;;;;;;2.00;1.23;;;13.70;99.90;;;;;;5017402;28;20453;-67
2021/05/22 06:47:16;;;;;;;2.90;0.97;;;13.90;99.90;;;;;;5017245;28;20476;-68
2021/05/22 06:49:42;;;;;;;2.20;1.20;;;14.00;99.90;;;;;;5016914;28;20480;-66
2021/05/22 06:52:09;;;;;;;2.40;0.90;;;14.30;99.90;;;;;;5016518;28;20477;-67
2021/05/22 06:54:35;;;;;;;6.13;1.87;;;14.90;99.90;;;;;;5017271;28;20453;-66
2021/05/22 06:57:02;;;;;;;1.60;1.10;;;15.40;99.90;;;;;;5017080;28;20514;-68
2021/05/22 06:59:28;;;;;;;3.97;1.20;;;16.00;99.90;;;;;;5017117;28;20499;-65
2021/05/22 07:01:54;;;;;;;4.63;1.17;;;16.40;99.90;;;;;;5016961;28;20495;-67
2021/05/22 07:04:20;;;;;;;4.03;1.30;;;17.00;99.90;;;;;;5017032;28;20460;-67
2021/05/22 07:06:47;;;;;;;1.77;1.00;;;17.20;99.90;;;;;;5016973;28;20457;-67
2021/05/22 07:09:14;;;;;;;3.73;2.73;;;17.00;99.90;;;;;;5016609;28;20837;-67
2021/05/22 07:11:41;;;;;;;1.43;1.10;;;16.60;99.90;;;;;;5017341;28;20485;-65
2021/05/22 07:14:08;;;;;;;4.57;1.00;;;16.10;99.90;;;;;;5017087;28;20499;-67
2021/05/22 07:16:34;;;;;;;4.20;1.40;;;15.70;99.90;;;;;;5016743;28;20452;-67
2021/05/22 07:19:01;;;;;;;1.63;0.90;;;15.40;99.90;;;;;;5017426;28;20460;-64
2021/05/22 07:21:27;;;;;;;2.60;1.20;;;15.90;99.90;;;;;;5019720;28;20503;-64
2021/05/22 07:23:53;;;;;;;2.97;1.40;;;16.40;99.90;;;;;;5017917;28;20456;-66
2021/05/22 07:26:21;;;;;;;3.97;1.10;;;17.00;99.90;;;;;;5017343;28;20453;-66
2021/05/22 07:28:47;;;;;;;2.40;1.27;;;17.70;99.90;;;;;;5016798;28;20464;-65
2021/05/22 07:31:13;;;;;;;2.17;1.17;;;18.20;99.90;;;;;;5016912;28;20473;-65
2021/05/22 07:33:41;;;;;;;5.90;1.33;;;18.80;99.90;;;;;;5017008;28;20449;-64
2021/05/22 07:36:08;;;;;;;4.73;1.20;;;19.60;99.70;;;;;;5017729;28;20457;-65
2021/05/22 07:38:35;;;;;;;1.10;1.00;;;19.80;95.20;;;;;;5018102;28;20452;-65
2021/05/22 07:41:02;;;;;;;3.47;1.30;;;18.90;95.30;;;;;;5017679;28;20496;-65
2021/05/22 07:43:30;;;;;;;2.43;1.37;;;17.90;96.80;;;;;;5017108;28;20461;-64
2021/05/22 07:45:57;;;;;;;3.80;1.20;;;16.90;98.90;;;;;;5016368;28;20457;-64
2021/05/22 07:48:24;;;;;;;3.37;1.10;;;16.20;99.90;;;;;;5017124;28;20480;-64
2021/05/22 07:50:52;;;;;;;2.00;1.10;;;16.00;99.90;;;;;;5016488;28;20512;-65
2021/05/22 07:53:18;;;;;;;2.63;1.60;;;15.60;99.90;;;;;;5016784;28;20456;-64
2021/05/22 07:55:44;;;;;;;2.20;1.20;;;15.50;99.90;;;;;;5017567;28;20441;-64
2021/05/22 07:58:11;;;;;;;4.70;1.63;;;15.60;99.90;;;;;;5017145;28;20464;-64
2021/05/22 08:00:38;;;;;;;2.90;1.20;;;15.50;99.90;;;;;;5017701;28;20488;-65
2021/05/22 08:03:04;;;;;;;1.27;1.17;;;15.90;99.90;;;;;;5026258;28;20449;-64
2021/05/22 08:05:31;;;;;;;1.53;1.20;;;16.80;99.90;;;;;;5017585;28;20456;-64
2021/05/22 08:07:57;;;;;;;5.77;1.80;;;17.70;99.90;;;;;;5017063;28;20464;-64
2021/05/22 08:10:23;;;;;;;1.50;1.20;;;18.30;99.60;;;;;;5016482;28;20484;-65
2021/05/22 08:12:49;;;;;;;2.60;1.30;;;19.10;97.50;;;;;;5016293;28;20556;-64
2021/05/22 08:15:15;;;;;;;2.00;1.30;;;19.20;96.40;;;;;;5016329;28;20457;-64
2021/05/22 08:17:42;;;;;;;3.60;1.57;;;19.10;95.80;;;;;;5015742;28;21018;-65
2021/05/22 08:20:11;;;;;;;1.90;1.20;;;19.30;95.40;;;;;;5015746;28;20457;-64
2021/05/22 08:22:37;;;;;;;2.70;1.10;;;19.40;91.40;;;;;;5015751;28;20452;-63
2021/05/22 08:25:05;;;;;;;3.00;2.20;;;19.50;92.10;;;;;;5016235;28;20464;-63
2021/05/22 08:27:31;;;;;;;2.50;1.23;;;20.40;92.70;;;;;;5015891;28;20803;-64
2021/05/22 08:29:58;;;;;;;2.53;1.47;;;20.50;89.80;;;;;;5015549;28;20487;-64
2021/05/22 08:32:25;;;;;;;1.57;0.93;;;20.50;87.70;;;;;;5015248;28;20480;-65
2021/05/22 08:34:52;;;;;;;2.77;1.10;;;20.40;86.00;;;;;;5015717;28;20831;-65
2021/05/22 08:37:20;;;;;;;3.60;1.20;;;20.10;82.60;;;;;;5015458;28;20448;-64
2021/05/22 08:39:47;;;;;;;2.50;1.57;;;20.40;83.80;;;;;;5016062;28;20539;-64
2021/05/22 08:42:17;;;;;;;3.17;1.40;;;20.50;83.30;;;;;;5015612;28;20477;-64
2021/05/22 08:44:43;;;;;;;1.83;1.13;;;20.60;83.80;;;;;;5015047;28;20907;-64
2021/05/22 08:47:10;;;;;;;3.90;1.20;;;21.10;79.70;;;;;;5015377;28;20448;-67
2021/05/22 08:49:43;;;;;;;2.57;1.63;;;21.50;80.10;;;;;;5015513;28;20983;-66
2021/05/22 08:52:13;;;;;;;2.90;1.20;;;21.20;77.60;;;;;;5015536;28;20473;-66
2021/05/22 08:54:40;;;;;;;2.77;1.40;;;21.50;77.60;;;;;;5015776;28;20441;-67
2021/05/22 08:57:07;;;;;;;1.50;0.93;;;21.10;76.30;;;;;;5015153;28;20456;-66
2021/05/22 08:59:38;;;;;;;4.67;2.13;;;20.70;76.90;;;;;;5016120;28;20817;-67
2021/05/22 09:02:04;;;;;;;2.60;1.30;;;21.10;78.10;;;;;;5015455;28;20485;-67
2021/05/22 09:04:31;;;;;;;2.60;1.27;;;21.80;75.90;;;;;;5016614;28;20464;-69
2021/05/22 09:07:02;;;;;;;3.77;1.27;;;21.50;73.30;;;;;;5016629;28;20543;-67
2021/05/22 09:09:43;;;;;;;3.17;1.13;;;21.10;72.50;;;;;;5015136;28;20476;-67
2021/05/22 09:12:10;;;;;;;1.07;0.97;;;20.90;71.90;;;;;;5016537;28;20485;-66
2021/05/22 09:14:47;;;;;;;3.23;1.50;;;20.90;74.60;;;;;;5014825;28;20461;-66
2021/05/22 09:17:14;;;;;;;1.97;1.00;;;21.40;70.20;;;;;;5014958;28;20449;-67
2021/05/22 09:19:41;;;;;;;5.57;1.20;;;21.50;68.90;;;;;;5015005;28;20572;-66
2021/05/22 09:22:24;;;;;;;5.20;1.97;;;22.40;70.20;;;;;;5015190;28;20480;-67
2021/05/22 09:25:02;;;;;;;4.53;1.20;;;23.00;61.30;;;;;;5014668;28;20457;-66
2021/05/22 09:27:33;;;;;;;1.07;0.83;;;23.20;60.30;;;;;;5015047;28;20502;-67
2021/05/22 09:30:06;;;;;;;3.40;1.40;;;22.70;58.10;;;;;;5015244;28;20465;-67
2021/05/22 09:32:32;;;;;;;1.90;1.20;;;22.40;58.30;;;;;;5017121;28;20479;-66
2021/05/22 09:34:59;;;;;;;1.90;1.20;;;22.70;57.70;;;;;;5027003;28;20456;-68
2021/05/22 09:37:25;;;;;;;1.10;1.00;;;23.10;57.70;;;;;;5018055;28;20449;-67
2021/05/22 09:39:53;;;;;;;1.67;1.10;;;22.90;57.70;;;;;;5015250;28;20453;-68
2021/05/22 09:42:27;;;;;;;3.10;1.27;;;23.20;57.40;;;;;;5015496;28;20900;-67
2021/05/22 09:44:53;;;;;;;1.60;1.00;;;23.50;54.10;;;;;;5014685;28;20464;-67
2021/05/22 09:47:20;;;;;;;1.83;1.10;;;23.50;54.80;;;;;;5014916;28;20467;-67
2021/05/22 09:49:49;;;;;;;3.70;1.20;;;24.20;54.00;;;;;;5014952;28;20473;-67
2021/05/22 09:52:16;;;;;;;1.60;1.37;;;23.80;55.00;;;;;;5014801;28;20473;-67
2021/05/22 09:54:45;;;;;;;1.40;0.97;;;23.20;54.80;;;;;;5014905;28;20476;-67
2021/05/22 09:57:14;;;;;;;1.87;1.20;;;23.20;53.10;;;;;;5014562;28;20479;-67
2021/05/22 09:59:42;;;;;;;2.10;1.30;;;22.60;54.50;;;;;;5014386;28;20453;-68
2021/05/22 10:02:09;;;;;;;1.70;1.07;;;22.10;55.70;;;;;;5013945;28;21014;-67
2021/05/22 10:04:35;;;;;;;4.70;1.50;;;21.60;56.90;;;;;;5017686;28;20504;-67
2021/05/22 10:07:01;;;;;;;4.63;1.20;;;21.10;56.90;;;;;;5015386;28;20452;-67
2021/05/22 10:09:29;;;;;;;1.33;1.20;;;20.70;58.40;;;;;;5014990;28;20531;-67
2021/05/22 10:12:06;;;;;;;1.60;1.00;;;20.50;58.40;;;;;;5014916;28;20480;-68
2021/05/22 10:14:34;;;;;;;1.30;1.20;;;20.40;59.50;;;;;;5014221;28;20524;-65
2021/05/22 10:17:03;;;;;;;2.93;0.80;;;20.70;61.10;;;;;;5014443;28;20459;-65
2021/05/22 10:19:30;;;;;;;1.53;1.00;;;20.60;60.50;;;;;;5014187;28;20830;-67
2021/05/22 10:21:57;;;;;;;4.10;1.30;;;20.50;57.60;;;;;;5014378;28;20880;-67
2021/05/22 10:24:24;;;;;;;2.83;1.00;;;19.90;58.90;;;;;;5014477;28;20495;-67
2021/05/22 10:26:52;;;;;;;1.10;1.00;;;19.70;59.60;;;;;;5015415;28;20457;-64
2021/05/22 10:29:19;;;;;;;1.53;1.10;;;20.00;63.00;;;;;;5018169;28;20459;-68
2021/05/22 10:31:45;;;;;;;2.33;1.50;;;20.80;57.80;;;;;;5017253;28;20487;-67
2021/05/22 10:34:14;;;;;;;0.90;0.87;;;21.70;57.90;;;;;;5018140;28;20479;-67
2021/05/22 10:36:49;;;;;;;1.43;1.10;;;22.20;55.20;;;;;;5018177;28;20457;-67
2021/05/22 10:39:35;;;;;;;1.60;1.10;;;22.90;53.60;;;;;;5018242;28;20463;-67
2021/05/22 10:42:02;;;;;;;2.70;1.00;;;23.80;55.50;;;;;;5019687;28;20571;-67
2021/05/22 10:44:30;;;;;;;3.03;0.93;;;24.10;52.90;;;;;;5018074;28;20480;-68
2021/05/22 10:47:12;;;;;;;1.60;1.03;;;23.10;50.80;;;;;;5017679;28;20486;-68
2021/05/22 10:49:51;;;;;;;2.00;1.20;;;22.30;52.20;;;;;;5017825;28;20483;-68
2021/05/22 10:52:19;;;;;;;1.10;1.00;;;21.80;52.20;;;;;;5018645;28;20480;-67
2021/05/22 10:55:05;;;;;;;2.60;1.77;;;21.10;53.50;;;;;;5017187;28;20453;-68
2021/05/22 10:57:32;;;;;;;1.57;1.27;;;21.00;53.10;;;;;;5017219;28;20441;-67
2021/05/22 11:00:23;;;;;;;2.27;0.90;;;21.40;52.80;;;;;;5017888;28;20453;-67
2021/05/22 11:02:52;;;;;;;2.37;1.00;;;21.40;52.00;;;;;;5017607;28;20444;-67
2021/05/22 11:05:37;;;;;;;1.03;0.93;;;21.40;53.80;;;;;;5027724;28;20456;-68
2021/05/22 11:08:30;;;;;;;5.17;0.90;;;21.90;54.50;;;;;;5028993;28;20860;-67
2021/05/22 11:11:00;;;;;;;1.63;1.30;;;21.70;51.00;;;;;;5016692;28;20485;-67
2021/05/22 11:13:38;;;;;;;1.30;0.67;;;20.90;51.40;;;;;;5017100;28;20935;-68
2021/05/22 11:16:07;;;;;;;2.53;1.00;;;21.30;54.40;;;;;;5017217;28;20493;-67
2021/05/22 11:18:59;;;;;;;2.10;1.10;;;21.30;54.00;;;;;;5017433;28;20480;-68
2021/05/22 11:21:27;;;;;;;2.40;1.40;;;20.90;54.70;;;;;;5017681;28;20479;-67
2021/05/22 11:24:10;;;;;;;1.53;1.10;;;21.10;57.10;;;;;;5017152;28;20453;-67
2021/05/22 11:26:54;;;;;;;2.50;1.20;;;20.90;53.20;;;;;;5016821;28;20441;-65
2021/05/22 11:29:21;;;;;;;1.53;0.90;;;20.40;52.40;;;;;;5016589;28;20514;-65
2021/05/22 11:31:48;;;;;;;2.83;2.50;;;20.40;54.10;;;;;;5016351;28;20563;-63
2021/05/22 11:34:27;;;;;;;5.37;1.33;;;20.10;55.20;;;;;;5016395;28;20456;-63
2021/05/22 11:37:27;;;;;;;5.30;1.90;;;20.10;56.70;;;;;;5015868;28;21009;-62
2021/05/22 11:39:54;;;;;;;1.37;0.90;;;20.30;56.30;;;;;;5016266;28;20437;-62
2021/05/22 11:42:30;;;;;;;4.07;2.33;;;20.70;55.70;;;;;;5016087;28;20491;-62
2021/05/22 11:44:58;;;;;;;2.00;1.03;;;21.10;59.50;;;;;;5015991;28;20495;-62
2021/05/22 11:47:30;;;;;;;3.43;1.87;;;21.60;55.60;;;;;;5016118;28;20460;-62
2021/05/22 11:49:56;;;;;;;4.80;1.30;;;21.50;54.70;;;;;;5016228;28;20469;-62
2021/05/22 11:52:27;;;;;;;3.73;1.30;;;21.80;53.70;;;;;;5016539;28;20469;-62
2021/05/22 11:54:54;;;;;;;1.63;1.07;;;21.60;50.40;;;;;;5016136;28;20457;-63
2021/05/22 11:57:20;;;;;;;4.63;1.53;;;21.10;52.90;;;;;;5015715;28;20463;-63
2021/05/22 11:59:47;;;;;;;1.90;1.50;;;21.20;54.10;;;;;;5015665;28;20919;-62
2021/05/22 12:02:13;;;;;;;1.43;0.90;;;21.50;57.50;;;;;;5015324;28;20488;-62
2021/05/22 12:04:49;;;;;;;4.80;2.03;;;21.50;53.00;;;;;;5015993;28;20484;-63
2021/05/22 12:07:16;;;;;;;8.00;1.10;;;21.20;56.50;;;;;;5015613;28;20440;-63
2021/05/22 12:09:42;;;;;;;1.53;0.87;;;20.80;53.80;;;;;;5015792;28;20509;-64
2021/05/22 12:12:12;;;;;;;2.30;1.33;;;20.70;53.40;;;;;;5015739;28;20473;-63
2021/05/22 12:14:39;;;;;;;2.23;1.40;;;20.60;58.20;;;;;;5016010;28;20503;-63
2021/05/22 12:17:06;;;;;;;2.43;1.40;;;20.70;58.30;;;;;;5016052;28;20449;-62
2021/05/22 12:19:35;;;;;;;3.70;1.40;;;20.80;57.00;;;;;;5015061;28;20965;-63
2021/05/22 12:22:01;;;;;;;1.03;0.90;;;20.80;57.20;;;;;;5015940;28;20484;-63
2021/05/22 12:24:28;;;;;;;1.60;0.83;;;20.70;56.70;;;;;;5015408;28;20940;-63
2021/05/22 12:26:56;;;;;;;2.73;0.90;;;20.70;55.10;;;;;;5015757;28;20457;-63
2021/05/22 12:29:25;;;;;;;1.33;0.70;;;20.40;53.00;;;;;;5015654;28;20511;-65
2021/05/22 12:31:55;;;;;;;1.90;1.13;;;20.20;52.30;;;;;;5015239;28;20473;-65
2021/05/22 12:34:29;;;;;;;1.33;1.13;;;19.80;52.70;;;;;;5015705;28;20492;-64
2021/05/22 12:36:58;;;;;;;0.80;0.80;;;19.40;56.10;;;;;;5015364;28;20436;-64
2021/05/22 12:39:31;;;;;;;1.17;1.10;;;19.60;58.60;;;;;;5027650;28;20464;-63
2021/05/22 12:41:57;;;;;;;1.90;1.00;;;19.80;59.00;;;;;;5014756;28;21008;-62
2021/05/22 12:44:24;;;;;;;2.73;1.10;;;19.80;57.10;;;;;;5014950;28;20457;-62
2021/05/22 12:46:56;;;;;;;1.50;1.00;;;20.00;56.80;;;;;;5015041;28;20459;-63
2021/05/22 12:49:23;;;;;;;1.90;1.30;;;20.20;57.60;;;;;;5014926;28;20523;-63
2021/05/22 12:52:00;;;;;;;1.50;1.30;;;20.30;55.60;;;;;;5015487;28;20477;-62
2021/05/22 12:54:30;;;;;;;1.07;0.90;;;20.40;59.40;;;;;;5014848;28;20452;-63
2021/05/22 12:57:01;;;;;;;2.43;1.27;;;20.30;56.90;;;;;;5015533;28;20919;-62
2021/05/22 12:59:29;;;;;;;3.13;1.00;;;20.10;53.90;;;;;;5014809;28;20457;-62
2021/05/22 13:02:19;;;;;;;1.37;1.00;;;19.70;54.60;;;;;;5014349;28;20484;-61
2021/05/22 13:04:48;;;;;;;1.27;1.00;;;19.70;55.80;;;;;;5015351;28;20445;-62
2021/05/22 13:07:16;;;;;;;1.43;1.17;;;19.40;55.40;;;;;;5014803;28;20453;-62
2021/05/22 13:10:00;;;;;;;1.83;1.10;;;19.00;54.70;;;;;;5014716;28;20480;-62
2021/05/22 13:12:27;;;;;;;3.67;1.00;;;18.80;56.50;;;;;;5014798;28;20477;-61
2021/05/22 13:14:58;;;;;;;0.80;0.80;;;18.80;58.60;;;;;;5014761;28;20459;-63
2021/05/22 13:17:25;;;;;;;2.50;1.20;;;19.00;59.50;;;;;;5014690;28;20546;-62
2021/05/22 13:19:53;;;;;;;2.40;0.90;;;19.00;60.30;;;;;;5014212;28;20502;-62
2021/05/22 13:22:28;;;;;;;1.83;1.17;;;19.20;59.60;;;;;;5014708;28;20476;-61
2021/05/22 13:25:06;;;;;;;0.93;0.70;;;19.40;59.50;;;;;;5015933;28;20437;-63
2021/05/22 13:27:34;;;;;;;2.00;0.90;;;19.30;60.10;;;;;;5014835;28;20915;-63
2021/05/22 13:30:04;;;;;;;0.93;0.80;;;19.30;60.40;;;;;;5015145;28;20461;-64
2021/05/22 13:32:30;;;;;;;3.83;0.80;;;19.50;63.00;;;;;;5015582;28;20503;-62
2021/05/22 13:34:56;;;;;;;1.27;1.10;;;20.00;65.40;;;;;;5014707;28;21041;-62
2021/05/22 13:37:22;;;;;;;0.90;0.80;;;20.40;59.50;;;;;;5014895;28;20503;-62
2021/05/22 13:39:49;;;;;;;1.70;0.97;;;20.70;61.80;;;;;;5015170;28;20958;-63
2021/05/22 13:42:15;;;;;;;1.07;1.00;;;20.90;59.40;;;;;;5015571;28;20476;-62
2021/05/22 13:44:42;;;;;;;1.57;1.20;;;21.10;61.10;;;;;;5015613;28;20507;-63
2021/05/22 13:47:09;;;;;;;2.30;0.83;;;20.50;57.10;;;;;;5015000;28;20441;-62
2021/05/22 13:49:35;;;;;;;1.17;1.00;;;20.60;61.40;;;;;;5014619;28;20453;-63
2021/05/22 13:52:03;;;;;;;1.40;0.90;;;20.90;59.40;;;;;;5013934;28;20476;-62
2021/05/22 13:54:29;;;;;;;2.00;1.00;;;21.10;58.00;;;;;;5014030;28;20453;-62
2021/05/22 13:56:55;;;;;;;1.20;1.10;;;21.00;60.50;;;;;;5014276;28;20449;-63
2021/05/22 13:59:22;;;;;;;1.00;0.87;;;21.10;56.20;;;;;;5014144;28;20786;-63
2021/05/22 14:01:48;;;;;;;2.90;1.10;;;20.80;57.40;;;;;;5015440;28;21003;-63
2021/05/22 14:04:15;;;;;;;4.03;1.30;;;20.50;55.70;;;;;;5018205;28;20457;-64
2021/05/22 14:06:43;;;;;;;1.90;0.90;;;20.20;56.80;;;;;;5017994;28;21025;-63
2021/05/22 14:09:09;;;;;;;1.20;1.10;;;19.80;56.80;;;;;;5019803;28;20457;-63
2021/05/22 14:11:35;;;;;;;2.00;1.17;;;19.80;58.60;;;;;;5025867;28;20886;-64
2021/05/22 14:14:01;;;;;;;0.80;0.80;;;19.70;60.10;;;;;;5018105;28;20906;-64
2021/05/22 14:16:27;;;;;;;0.70;0.70;;;19.80;58.90;;;;;;5018030;28;20460;-63
2021/05/22 14:18:54;;;;;;;1.70;0.87;;;19.80;59.20;;;;;;5018523;28;20453;-64
2021/05/22 14:21:21;;;;;;;2.17;0.70;;;20.00;62.00;;;;;;5018721;28;20468;-63
2021/05/22 14:23:47;;;;;;;0.93;0.93;;;20.30;60.00;;;;;;5018702;28;20512;-64
2021/05/22 14:26:13;;;;;;;1.23;1.00;;;20.30;57.80;;;;;;5018758;28;20476;-63
2021/05/22 14:28:44;;;;;;;2.13;1.20;;;20.30;58.00;;;;;;5018428;28;20552;-63
2021/05/22 14:31:11;;;;;;;1.60;1.00;;;20.60;59.50;;;;;;5018729;28;20481;-63
2021/05/22 14:33:37;;;;;;;3.60;1.40;;;20.90;58.00;;;;;;5018248;28;20459;-64
2021/05/22 14:36:04;;;;;;;2.57;0.97;;;21.20;59.10;;;;;;5017595;28;20470;-63
2021/05/22 14:38:32;;;;;;;0.97;0.87;;;21.40;61.00;;;;;;5017901;28;20453;-65
2021/05/22 14:40:59;;;;;;;0.77;0.70;;;21.50;59.70;;;;;;5018501;28;20468;-67
2021/05/22 14:43:25;;;;;;;1.37;0.90;;;21.40;58.50;;;;;;5018115;28;20835;-69
2021/05/22 14:45:51;;;;;;;3.83;1.43;;;21.40;56.70;;;;;;5017975;28;20512;-68
2021/05/22 14:48:18;;;;;;;1.23;0.87;;;21.30;56.30;;;;;;5018036;28;20819;-68
2021/05/22 14:50:44;;;;;;;2.70;1.30;;;21.00;57.90;;;;;;5018121;28;20484;-68
2021/05/22 14:53:10;;;;;;;1.60;0.73;;;20.90;57.60;;;;;;5017448;28;20453;-68
2021/05/22 14:55:37;;;;;;;1.37;1.03;;;20.70;58.70;;;;;;5017731;28;20464;-68
2021/05/22 14:58:05;;;;;;;1.03;0.90;;;20.70;58.20;;;;;;5017267;28;20517;-69
2021/05/22 15:00:32;;;;;;;0.80;0.80;;;20.60;58.60;;;;;;5016801;28;20460;-68
2021/05/22 15:03:01;;;;;;;1.73;1.37;;;20.40;58.00;;;;;;5017161;28;20539;-68
2021/05/22 15:05:27;;;;;;;2.57;1.20;;;20.10;57.00;;;;;;5016564;28;20454;-68
2021/05/22 15:07:53;;;;;;;0.80;0.80;;;19.90;57.60;;;;;;5017073;28;20449;-67
2021/05/22 15:10:21;;;;;;;2.10;1.20;;;19.70;57.60;;;;;;5016495;28;21134;-67
2021/05/22 15:12:48;;;;;;;0.87;0.60;;;19.60;58.50;;;;;;5016094;28;20453;-67
2021/05/22 15:15:15;;;;;;;1.90;0.93;;;19.80;58.70;;;;;;5016669;28;20464;-68
2021/05/22 15:17:43;;;;;;;2.17;1.30;;;19.80;58.20;;;;;;5016736;28;20511;-67
2021/05/22 15:20:11;;;;;;;0.80;0.80;;;19.90;57.40;;;;;;5016982;28;20456;-68
2021/05/22 15:22:37;;;;;;;0.60;0.60;;;19.90;58.70;;;;;;5016276;28;20979;-68
2021/05/22 15:25:05;;;;;;;0.87;0.87;;;20.20;59.90;;;;;;5016743;28;20495;-68
2021/05/22 15:27:31;;;;;;;3.37;0.83;;;20.40;58.70;;;;;;5016708;28;20452;-68
2021/05/22 15:29:58;;;;;;;0.87;0.70;;;20.60;59.30;;;;;;5016550;28;20481;-68
2021/05/22 15:32:24;;;;;;;0.73;0.70;;;20.70;59.10;;;;;;5017432;28;20479;-68
2021/05/22 15:34:52;;;;;;;1.40;1.10;;;20.80;58.70;;;;;;5017253;28;20453;-68
2021/05/22 15:37:18;;;;;;;3.43;1.07;;;20.50;59.20;;;;;;5016987;28;20444;-68
2021/05/22 15:39:44;;;;;;;2.27;1.10;;;20.30;60.80;;;;;;5017638;28;20463;-67
2021/05/22 15:42:11;;;;;;;2.63;1.43;;;20.40;59.30;;;;;;5025718;28;20879;-67
2021/05/22 15:44:37;;;;;;;1.83;0.93;;;20.30;59.30;;;;;;5017017;28;20468;-68
2021/05/22 15:47:04;;;;;;;0.80;0.80;;;20.30;60.10;;;;;;5016287;28;20453;-67
2021/05/22 16:00:37;;;;;;;4.43;1.00;;;19.30;60.10;;;;;;5015398;28;20459;-68
2021/05/22 16:05:49;;;;;;;1.57;0.60;;;19.30;59.30;;;;;;5015773;28;20803;-67
2021/05/22 16:08:16;;;;;;;1.97;0.70;;;19.20;56.80;;;;;;5015848;28;20511;-66
2021/05/22 16:10:43;;;;;;;2.93;1.50;;;18.90;54.80;;;;;;5016329;28;20492;-66
2021/05/22 16:13:09;;;;;;;1.57;1.20;;;18.70;55.80;;;;;;5015752;28;20456;-66
2021/05/22 16:15:36;;;;;;;1.70;1.07;;;18.50;54.10;;;;;;5015912;28;20460;-66
2021/05/22 16:18:04;;;;;;;1.63;0.80;;;18.40;54.40;;;;;;5015950;28;20457;-66
2021/05/22 16:20:30;;;;;;;1.30;0.90;;;18.30;55.70;;;;;;5016344;28;20491;-67
2021/05/22 16:22:57;;;;;;;0.87;0.60;;;18.30;55.60;;;;;;5020720;28;20460;-67
2021/05/22 16:25:25;;;;;;;2.30;0.97;;;18.30;55.20;;;;;;5017934;28;20452;-65
2021/05/22 16:27:51;;;;;;;3.17;1.00;;;18.20;55.70;;;;;;5015326;28;20486;-65
2021/05/22 16:30:18;;;;;;;2.57;1.00;;;18.30;57.00;;;;;;5015091;28;20543;-66
2021/05/22 16:32:46;;;;;;;4.47;2.70;;;18.20;55.70;;;;;;5016465;28;20452;-67
2021/05/22 16:35:14;;;;;;;0.97;0.97;;;18.20;57.00;;;;;;5016957;28;20457;-67
2021/05/22 16:37:40;;;;;;;0.80;0.80;;;18.20;56.50;;;;;;5016776;28;20541;-65
2021/05/22 16:40:08;;;;;;;1.13;1.03;;;18.20;57.20;;;;;;5017432;28;20456;-67
2021/05/22 16:42:36;;;;;;;1.53;0.90;;;18.20;57.80;;;;;;5015229;28;20468;-66
2021/05/22 16:45:03;;;;;;;1.77;1.33;;;18.30;57.10;;;;;;5015330;28;20461;-65
2021/05/22 16:47:29;;;;;;;2.70;1.10;;;18.20;56.40;;;;;;5015042;28;20453;-66
2021/05/22 16:49:55;;;;;;;0.97;0.97;;;18.00;55.70;;;;;;5015150;28;20495;-67
2021/05/22 16:52:22;;;;;;;1.80;0.90;;;18.00;56.80;;;;;;5014888;28;20564;-66
2021/05/22 16:54:48;;;;;;;1.17;0.90;;;17.90;56.00;;;;;;5015720;28;20584;-69
2021/05/22 16:57:14;;;;;;;1.53;0.87;;;17.90;56.00;;;;;;5016140;28;20460;-66
2021/05/22 16:59:41;;;;;;;1.50;1.30;;;17.90;55.90;;;;;;5015179;28;20811;-67
2021/05/22 17:02:08;;;;;;;3.10;1.60;;;17.80;56.60;;;;;;5014036;28;20484;-65
2021/05/22 17:04:34;;;;;;;0.90;0.90;;;17.80;57.10;;;;;;5014614;28;20459;-66
2021/05/22 17:07:00;;;;;;;1.80;0.80;;;17.70;57.30;;;;;;5014702;28;20452;-66